Time;durP1;ratioP1;P1;durP2;ratioP2;P2;SDS_P1;SDS_P2;PMS_P1;PMS_P2;Temp;Humidity;BMP_temperature;BMP_pressure;BME280_temperature;BME280_humidity;BME280_pressure;Samples;Min_cycle;Max_cycle;Signal;HPM_P1;HPM_P2
2022/06/12 00:00:31;;;;;;;;;;;;;;;18.56;100.00;99314.84;5075963;28;19923;-71
2022/06/12 00:02:57;;;;;;;;;;;;;;;18.70;100.00;99319.00;5093813;28;19912;-72
2022/06/12 00:05:24;;;;;;;;;;;;;;;18.64;100.00;99325.44;5075728;28;19936;-71
2022/06/12 00:07:50;;;;;;;;;;;;;;;18.41;100.00;99307.38;5093876;28;19919;-72
2022/06/12 00:10:15;;;;;;;;;;;;;;;18.68;100.00;99316.56;5093034;28;19912;-72
2022/06/12 00:12:41;;;;;;;;;;;;;;;18.56;100.00;99325.16;5075108;28;20378;-71
2022/06/12 00:15:07;;;;;;;;;;;;;;;18.62;100.00;99321.34;5092984;28;20373;-72
2022/06/12 00:17:33;;;;;;;;;;;;;;;18.49;100.00;99312.84;5075166;28;19999;-72
2022/06/12 00:19:58;;;;;;;;;;;;;;;18.63;100.00;99310.94;5093389;28;20002;-71
2022/06/12 00:22:23;;;;;;;;;;;;;;;18.58;100.00;99310.41;5093422;28;19925;-71
2022/06/12 00:24:49;;;;;;;;;;;;;;;18.57;100.00;99307.97;5093383;28;20339;-72
2022/06/12 00:27:14;;;;;;;;;;;;;;;18.50;100.00;99302.41;5093511;28;19995;-73
2022/06/12 00:29:41;;;;;;;;;;;;;;;18.41;100.00;99297.06;5093634;28;19912;-77
2022/06/12 00:32:09;;;;;;;;;;;;;;;18.35;100.00;99302.66;5075274;28;19912;-72
2022/06/12 00:34:41;;;;;;;;;;;;;;;18.31;100.00;99306.38;5075008;28;20068;-72
2022/06/12 00:37:07;;;;;;;;;;;;;;;18.51;100.00;99314.38;5074819;28;19912;-71
2022/06/12 00:39:33;;;;;;;;;;;;;;;18.49;100.00;99316.25;5074467;28;19917;-72
2022/06/12 00:41:59;;;;;;;;;;;;;;;18.62;100.00;99318.78;5093366;28;19919;-72
2022/06/12 00:44:26;;;;;;;;;;;;;;;18.56;100.00;99314.84;5093041;28;20435;-72
2022/06/12 00:46:53;;;;;;;;;;;;;;;18.51;100.00;99319.53;5074392;28;20437;-72
2022/06/12 00:49:21;;;;;;;;;;;;;;;18.52;100.00;99317.78;5092896;28;19912;-72
2022/06/12 00:51:49;;;;;;;;;;;;;;;18.58;100.00;99319.91;5092668;28;19963;-72
2022/06/12 00:54:15;;;;;;;;;;;;;;;18.59;100.00;99324.13;5093301;28;20022;-71
2022/06/12 00:56:47;;;;;;;;;;;;;;;18.56;100.00;99311.47;5074540;28;20374;-71
2022/06/12 00:59:16;;;;;;;;;;;;;;;18.56;100.00;99322.56;5092240;28;19969;-72
2022/06/12 01:01:43;;;;;;;;;;;;;;;18.42;100.00;99314.97;5074418;28;19912;-71
2022/06/12 01:06:55;;;;;;;;;;;;;;;18.58;100.00;99314.78;5092737;28;20340;-70
2022/06/12 01:09:24;;;;;;;;;;;;;;;18.49;100.00;99313.66;5074328;28;20405;-71
2022/06/12 01:11:51;;;;;;;;;;;;;;;18.46;100.00;99315.63;5092525;28;19966;-72
2022/06/12 01:14:18;;;;;;;;;;;;;;;18.41;100.00;99302.22;5092606;28;19912;-71
2022/06/12 01:16:48;;;;;;;;;;;;;;;18.62;100.00;99305.91;5092194;28;20321;-73
2022/06/12 01:19:34;;;;;;;;;;;;;;;18.48;100.00;99303.47;5092000;28;19912;-74
2022/06/12 01:22:08;;;;;;;;;;;;;;;18.54;100.00;99295.31;5092489;28;20273;-71
2022/06/12 01:24:35;;;;;;;;;;;;;;;18.54;100.00;99288.41;5074342;28;19951;-71
2022/06/12 01:27:09;;;;;;;;;;;;;;;18.42;100.00;99288.44;5092392;28;20356;-71
2022/06/12 01:29:53;;;;;;;;;;;;;;;18.42;100.00;99288.44;5073878;28;19920;-71
2022/06/12 01:32:33;;;;;;;;;;;;;;;18.51;100.00;99280.06;5092845;28;19915;-72
2022/06/12 01:35:06;;;;;;;;;;;;;;;18.63;100.00;99271.47;5073966;28;20301;-71
2022/06/12 01:37:35;;;;;;;;;;;;;;;18.52;100.00;99274.00;5092605;28;19978;-71
2022/06/12 01:40:01;;;;;;;;;;;;;;;18.53;100.00;99273.06;5092087;28;20220;-72
2022/06/12 01:42:32;;;;;;;;;;;;;;;18.54;100.00;99280.66;5092422;28;19961;-71
2022/06/12 01:45:27;;;;;;;;;;;;;;;18.57;100.00;99279.63;5074213;28;19912;-72
2022/06/12 01:48:01;;;;;;;;;;;;;;;18.57;100.00;99285.63;5037193;28;19991;-71
2022/06/12 01:50:29;;;;;;;;;;;;;;;18.58;100.00;99284.66;5093603;28;20449;-72
2022/06/12 01:52:54;;;;;;;;;;;;;;;18.66;100.00;99281.56;5096144;28;19955;-72
2022/06/12 01:55:25;;;;;;;;;;;;;;;18.63;100.00;99279.19;5096409;28;19908;-74
2022/06/12 01:58:02;;;;;;;;;;;;;;;18.57;100.00;99288.19;5096017;28;19961;-72
2022/06/12 02:00:28;;;;;;;;;;;;;;;18.44;100.00;99284.84;5095990;28;19912;-72
2022/06/12 02:02:57;;;;;;;;;;;;;;;18.46;100.00;99279.59;5096004;28;19907;-72
2022/06/12 02:05:26;;;;;;;;;;;;;;;18.60;100.00;99284.59;5096407;28;19912;-71
2022/06/12 02:08:04;;;;;;;;;;;;;;;18.48;100.00;99275.97;5095946;28;19999;-73
2022/06/12 02:10:52;;;;;;;;;;;;;;;18.53;100.00;99280.78;5078542;28;20301;-71
2022/06/12 02:13:23;;;;;;;;;;;;;;;18.50;100.00;99278.44;5095651;28;19961;-71
2022/06/12 02:16:06;;;;;;;;;;;;;;;18.52;100.00;99274.00;5095815;28;19934;-73
2022/06/12 02:18:46;;;;;;;;;;;;;;;18.50;100.00;99268.94;5095619;28;19928;-71
2022/06/12 02:21:16;;;;;;;;;;;;;;;18.57;100.00;99267.59;5077605;28;19920;-71
2022/06/12 02:23:44;;;;;;;;;;;;;;;18.61;100.00;99269.00;5095607;28;19919;-71
2022/06/12 02:26:12;;;;;;;;;;;;;;;18.54;100.00;99260.06;5077072;28;19947;-72
2022/06/12 02:28:41;;;;;;;;;;;;;;;18.53;100.00;99261.03;5095479;28;20503;-71
2022/06/12 02:31:11;;;;;;;;;;;;;;;18.55;100.00;99271.19;5095845;28;20006;-72
2022/06/12 02:33:38;;;;;;;;;;;;;;;18.40;100.00;99269.72;5095676;28;19919;-72
2022/06/12 02:36:07;;;;;;;;;;;;;;;18.71;100.00;99280.31;5095630;28;20006;-74
2022/06/12 02:38:42;;;;;;;;;;;;;;;18.53;100.00;99275.63;5077023;28;19931;-73
2022/06/12 02:41:09;;;;;;;;;;;;;;;18.56;100.00;99278.81;5095422;28;19920;-72
2022/06/12 02:43:37;;;;;;;;;;;;;;;18.62;100.00;99277.56;5095272;28;19919;-72
2022/06/12 02:46:05;;;;;;;;;;;;;;;18.45;100.00;99283.91;5095365;28;19923;-71
2022/06/12 02:48:31;;;;;;;;;;;;;;;18.47;100.00;99283.81;5076617;28;20007;-71
2022/06/12 02:51:00;;;;;;;;;;;;;;;18.52;100.00;99285.09;5094489;28;20019;-71
2022/06/12 02:53:46;;;;;;;;;;;;;;;18.52;100.00;99289.47;5094590;28;19918;-72
2022/06/12 02:56:12;;;;;;;;;;;;;;;18.57;100.00;99289.94;5076272;28;19919;-70
2022/06/12 02:58:41;;;;;;;;;;;;;;;18.43;100.00;99285.78;5095080;28;19916;-71
2022/06/12 03:01:18;;;;;;;;;;;;;;;18.48;100.00;99290.59;5093516;28;19908;-72
2022/06/12 03:03:47;;;;;;;;;;;;;;;18.60;100.00;99287.16;5094831;28;20378;-71
2022/06/12 03:06:13;;;;;;;;;;;;;;;18.69;100.00;99286.47;5094643;28;20020;-71
2022/06/12 03:08:42;;;;;;;;;;;;;;;18.59;100.00;99290.66;5094374;28;20420;-72
2022/06/12 03:11:07;;;;;;;;;;;;;;;18.51;100.00;99280.91;5094342;28;19912;-71
2022/06/12 03:13:32;;;;;;;;;;;;;;;18.61;100.00;99278.47;5094223;28;19919;-70
2022/06/12 03:16:18;;;;;;;;;;;;;;;18.60;100.00;99271.72;5094090;28;19919;-70
2022/06/12 03:18:48;;;;;;;;;;;;;;;18.63;100.00;99274.88;5094577;28;19923;-72
2022/06/12 03:21:19;;;;;;;;;;;;;;;18.62;100.00;99277.56;5094358;28;19973;-72
2022/06/12 03:24:00;;;;;;;;;;;;;;;18.68;100.00;99285.66;5094140;28;19916;-71
2022/06/12 03:26:41;;;;;;;;;;;;;;;18.56;100.00;99286.53;5075636;28;20350;-72
2022/06/12 03:29:25;;;;;;;;;;;;;;;18.68;100.00;99289.97;5075749;28;19951;-71
2022/06/12 03:31:59;;;;;;;;;;;;;;;18.59;100.00;99288.06;5075883;28;19916;-71
2022/06/12 03:34:27;;;;;;;;;;;;;;;18.64;100.00;99280.84;5075935;28;19920;-75
2022/06/12 03:36:57;;;;;;;;;;;;;;;18.68;100.00;99285.66;5075699;28;19916;-72
2022/06/12 03:39:27;;;;;;;;;;;;;;;18.74;100.00;99289.53;5094042;28;19999;-72
2022/06/12 03:41:56;;;;;;;;;;;;;;;18.75;100.00;99281.72;5093772;28;20298;-71
2022/06/12 03:44:24;;;;;;;;;;;;;;;18.72;100.00;99289.66;5075701;28;19912;-71
2022/06/12 03:46:55;;;;;;;;;;;;;;;18.61;100.00;99288.78;5075427;28;19916;-71
2022/06/12 03:49:32;;;;;;;;;;;;;;;18.73;100.00;99290.47;5093487;28;20352;-72
2022/06/12 03:51:57;;;;;;;;;;;;;;;18.66;100.00;99289.28;5075719;28;19912;-72
2022/06/12 03:54:32;;;;;;;;;;;;;;;18.53;100.00;99288.50;5075797;28;19916;-72
2022/06/12 03:59:47;;;;;;;;;;;;;;;18.57;100.00;99292.50;5093290;28;19977;-71
2022/06/12 04:02:14;;;;;;;;;;;;;;;18.51;100.00;99290.38;5093499;28;20362;-71
2022/06/12 04:04:41;;;;;;;;;;;;;;;18.65;100.00;99288.47;5074991;28;19929;-70
2022/06/12 04:07:09;;;;;;;;;;;;;;;18.81;100.00;99285.59;5093169;28;19961;-71
2022/06/12 04:09:38;;;;;;;;;;;;;;;18.82;100.00;99284.66;5093454;28;20366;-70
2022/06/12 04:12:07;;;;;;;;;;;;;;;18.71;100.00;99294.91;5093065;28;19969;-71
2022/06/12 04:14:40;;;;;;;;;;;;;;;18.79;100.00;99290.88;5092655;28;19912;-71
2022/06/12 04:17:05;;;;;;;;;;;;;;;18.88;100.00;99292.75;5093307;28;19916;-71
2022/06/12 04:19:58;;;;;;;;;;;;;;;18.80;100.00;99295.06;5093109;28;19916;-71
2022/06/12 04:22:18;;;;;;;;;;;;;;;18.86;100.00;99286.06;5092690;28;19952;-70
2022/06/12 04:24:46;;;;;;;;;;;;;;;18.82;100.00;99285.47;5074518;28;20378;-71
2022/06/12 04:27:11;;;;;;;;;;;;;;;18.69;100.00;99289.88;5074719;28;20339;-71
2022/06/12 04:29:38;;;;;;;;;;;;;;;18.82;100.00;99292.38;5093071;28;20011;-71
2022/06/12 04:32:15;;;;;;;;;;;;;;;18.80;100.00;99296.81;5093174;28;19923;-70
2022/06/12 04:34:41;;;;;;;;;;;;;;;18.79;100.00;99287.47;5092797;28;20014;-70
2022/06/12 04:37:11;;;;;;;;;;;;;;;18.71;100.00;99295.75;5074331;28;19946;-70
2022/06/12 04:39:37;;;;;;;;;;;;;;;18.67;100.00;99293.50;5074568;28;19981;-69
2022/06/12 04:42:03;;;;;;;;;;;;;;;18.93;100.00;99302.75;5092329;28;20369;-70
2022/06/12 04:44:28;;;;;;;;;;;;;;;18.89;100.00;99304.72;5092786;28;19912;-69
2022/06/12 04:46:55;;;;;;;;;;;;;;;19.02;100.00;99318.34;5074372;28;19923;-71
2022/06/12 04:49:22;;;;;;;;;;;;;;;19.16;100.00;99316.50;5092357;28;19926;-69
2022/06/12 04:51:50;;;;;;;;;;;;;;;19.02;100.00;99322.66;5074151;28;19931;-70
2022/06/12 04:54:15;;;;;;;;;;;;;;;18.99;100.00;99320.31;5092218;28;20305;-70
2022/06/12 04:56:41;;;;;;;;;;;;;;;19.01;100.00;99327.00;5092400;28;19912;-71
2022/06/12 04:59:06;;;;;;;;;;;;;;;19.16;100.00;99331.97;5092506;28;19912;-71
2022/06/12 05:01:35;;;;;;;;;;;;;;;18.95;100.00;99332.63;5092413;28;19912;-74
2022/06/12 05:04:01;;;;;;;;;;;;;;;19.29;100.00;99341.28;5092594;28;19912;-71
2022/06/12 05:06:27;;;;;;;;;;;;;;;19.36;100.00;99339.09;5092314;28;19919;-71
2022/06/12 05:08:53;;;;;;;;;;;;;;;19.54;100.00;99342.88;5092370;28;19916;-71
2022/06/12 05:11:19;;;;;;;;;;;;;;;19.26;100.00;99341.50;5074024;28;20301;-71
2022/06/12 05:13:44;;;;;;;;;;;;;;;19.28;100.00;99349.09;5074416;28;19924;-71
2022/06/12 05:16:17;;;;;;;;;;;;;;;19.16;100.00;99355.16;5074126;28;19923;-70
2022/06/12 05:18:43;;;;;;;;;;;;;;;19.19;100.00;99347.22;5092536;28;19923;-71
2022/06/12 05:21:08;;;;;;;;;;;;;;;19.15;100.00;99356.09;5092110;28;19912;-71
2022/06/12 05:23:33;;;;;;;;;;;;;;;19.24;100.00;99355.41;5092113;28;20426;-72
2022/06/12 05:26:00;;;;;;;;;;;;;;;19.36;100.00;99350.22;5091852;28;19912;-71
2022/06/12 05:28:26;;;;;;;;;;;;;;;19.40;100.00;99355.97;5074281;28;20366;-71
2022/06/12 05:30:52;;;;;;;;;;;;;;;19.42;100.00;99356.69;5073950;28;20373;-70
2022/06/12 05:33:17;;;;;;;;;;;;;;;19.32;100.00;99360.84;5091956;28;19912;-71
2022/06/12 05:35:42;;;;;;;;;;;;;;;19.35;100.00;99364.03;5092169;28;19918;-71
2022/06/12 05:38:08;;;;;;;;;;;;;;;19.35;100.00;99360.66;5092171;28;19912;-71
2022/06/12 05:40:35;;;;;;;;;;;;;;;19.27;100.00;99357.78;5092274;28;20342;-71
2022/06/12 05:43:01;;;;;;;;;;;;;;;19.44;100.00;99363.38;5092238;28;19912;-71
2022/06/12 05:45:27;;;;;;;;;;;;;;;19.32;100.00;99366.00;5092086;28;20392;-71
2022/06/12 05:47:52;;;;;;;;;;;;;;;19.42;100.00;99362.66;5092322;28;19943;-71
2022/06/12 05:50:19;;;;;;;;;;;;;;;19.41;100.00;99370.53;5073750;28;19977;-70
2022/06/12 05:52:44;;;;;;;;;;;;;;;19.44;100.00;99372.84;5073810;28;19912;-74
2022/06/12 05:55:10;;;;;;;;;;;;;;;19.46;100.00;99376.97;5088660;28;19919;-75
2022/06/12 05:57:35;;;;;;;;;;;;;;;19.44;100.00;99383.16;5054574;28;19917;-73
2022/06/12 06:00:00;;;;;;;;;;;;;;;19.62;100.00;99382.63;5072484;28;20042;-74
2022/06/12 06:02:26;;;;;;;;;;;;;;;19.56;100.00;99374.53;5072307;28;19917;-76
2022/06/12 06:04:51;;;;;;;;;;;;;;;19.57;100.00;99373.59;5072332;28;19956;-75
2022/06/12 06:07:16;;;;;;;;;;;;;;;19.66;100.00;99370.34;5072755;28;19912;-74
2022/06/12 06:09:41;;;;;;;;;;;;;;;19.66;100.00;99368.59;5071952;28;20404;-75
2022/06/12 06:12:07;;;;;;;;;;;;;;;19.63;100.00;99368.00;5054582;28;19912;-75
2022/06/12 06:14:32;;;;;;;;;;;;;;;19.70;100.00;99376.91;5072316;28;19908;-75
2022/06/12 06:16:58;;;;;;;;;;;;;;;19.77;100.00;99385.81;5053949;28;19924;-72
2022/06/12 06:19:23;;;;;;;;;;;;;;;19.58;100.00;99376.06;5053953;28;20358;-72
2022/06/12 06:21:48;;;;;;;;;;;;;;;19.63;100.00;99370.56;5053903;28;19909;-73
2022/06/12 06:24:14;;;;;;;;;;;;;;;19.54;100.00;99374.66;5071341;28;20007;-75
2022/06/12 06:26:39;;;;;;;;;;;;;;;19.51;100.00;99374.88;5072188;28;20378;-75
2022/06/12 06:29:05;;;;;;;;;;;;;;;19.63;100.00;99380.88;5072417;28;19932;-74
2022/06/12 06:31:30;;;;;;;;;;;;;;;19.51;100.00;99384.38;5071915;28;20452;-75
2022/06/12 06:33:55;;;;;;;;;;;;;;;19.44;100.00;99384.00;5072033;28;20389;-74
2022/06/12 06:36:21;;;;;;;;;;;;;;;19.61;100.00;99367.28;5055984;28;19970;-74
2022/06/12 06:38:49;;;;;;;;;;;;;;;19.65;100.00;99372.09;5075660;28;19912;-75
2022/06/12 06:41:14;;;;;;;;;;;;;;;19.74;100.00;99386.88;5057611;28;19912;-74
2022/06/12 06:46:23;;;;;;;;;;;;;;;19.56;100.00;99387.44;5075620;28;20024;-74
2022/06/12 06:48:49;;;;;;;;;;;;;;;19.53;100.00;99392.81;5088567;28;19948;-75
2022/06/12 06:51:14;;;;;;;;;;;;;;;19.50;100.00;99395.63;5077559;28;19959;-75
2022/06/12 06:53:39;;;;;;;;;;;;;;;19.41;100.00;99401.47;5095939;28;20411;-74
2022/06/12 06:56:05;;;;;;;;;;;;;;;19.51;100.00;99399.84;5096160;28;20006;-76
2022/06/12 06:58:31;;;;;;;;;;;;;;;19.47;100.00;99391.50;5095801;28;19912;-75
2022/06/12 07:00:57;;;;;;;;;;;;;;;19.48;100.00;99390.56;5095595;28;19955;-75
2022/06/12 07:03:22;;;;;;;;;;;;;;;19.68;100.00;99392.50;5095253;28;19907;-75
2022/06/12 07:05:48;;;;;;;;;;;;;;;19.50;100.00;99395.63;5095419;28;19916;-75
2022/06/12 07:08:15;;;;;;;;;;;;;;;19.54;100.00;99384.13;5077245;28;20437;-74
2022/06/12 07:10:41;;;;;;;;;;;;;;;19.63;100.00;99381.69;5095240;28;20022;-75
2022/06/12 07:13:09;;;;;;;;;;;;;;;19.71;100.00;99388.84;5077503;28;20003;-75
2022/06/12 07:15:36;;;;;;;;;;;;;;;19.66;100.00;99388.38;5095017;28;19953;-74
2022/06/12 07:18:01;;;;;;;;;;;;;;;19.70;100.00;99394.97;5076928;28;19912;-75
2022/06/12 07:20:29;;;;;;;;;;;;;;;19.66;100.00;99398.69;5077093;28;19919;-75
2022/06/12 07:22:54;;;;;;;;;;;;;;;19.74;100.00;99386.06;5076620;28;20024;-69
2022/06/12 07:25:20;;;;;;;;;;;;;;;19.83;100.00;99393.91;5093724;28;19912;-69
2022/06/12 07:27:45;;;;;;;;;;;;;;;19.90;100.00;99399.44;5093547;28;20400;-69
2022/06/12 07:30:13;;;;;;;;;;;;;;;19.87;100.00;99394.50;5075653;28;19929;-73
2022/06/12 07:32:38;;;;;;;;;;;;;;;19.79;100.00;99394.25;5093411;28;20015;-70
2022/06/12 07:35:05;;;;;;;;;;;;;;;20.06;100.00;99397.34;5093738;28;20010;-69
2022/06/12 07:37:32;;;;;;;;;;;;;;;20.35;100.00;99400.31;5093911;28;19912;-70
2022/06/12 07:39:57;;;;;;;;;;;;;;;20.48;100.00;99395.84;5075184;28;19911;-69
2022/06/12 07:42:22;;;;;;;;;;;;;;;20.59;100.00;99406.16;5093681;28;20033;-70
2022/06/12 07:44:48;;;;;;;;;;;;;;;20.64;100.00;99412.59;5093657;28;19912;-69
2022/06/12 07:47:13;;;;;;;;;;;;;;;20.82;100.00;99406.94;5074152;28;20396;-70
2022/06/12 07:49:39;;;;;;;;;;;;;;;20.90;100.00;99417.50;5093496;28;19912;-70
2022/06/12 07:52:06;;;;;;;;;;;;;;;21.17;100.00;99426.47;5093346;28;20304;-69
2022/06/12 07:54:31;;;;;;;;;;;;;;;20.78;100.00;99426.22;5075301;28;19939;-69
2022/06/12 07:56:57;;;;;;;;;;;;;;;20.91;100.00;99435.47;5093357;28;19912;-71
2022/06/12 07:59:23;;;;;;;;;;;;;;;20.78;100.00;99436.53;5093416;28;19966;-70
2022/06/12 08:01:48;;;;;;;;;;;;;;;20.78;100.00;99434.75;5093354;28;20273;-70
2022/06/12 08:04:14;;;;;;;;;;;;;;;21.01;100.00;99417.44;5092809;28;20003;-70
2022/06/12 08:06:40;;;;;;;;;;;;;;;20.78;100.00;99423.63;5075207;28;19966;-69
2022/06/12 08:09:07;;;;;;;;;;;;;;;21.01;100.00;99425.19;5093089;28;20392;-69
2022/06/12 08:11:33;;;;;;;;;;;;;;;21.02;100.00;99426.84;5092511;28;20397;-70
2022/06/12 08:13:59;;;;;;;;;;;;;;;21.12;100.00;99431.19;5074552;28;19916;-69
2022/06/12 08:16:24;;;;;;;;;;;;;;;21.20;100.00;99438.31;5092955;28;20365;-70
2022/06/12 08:18:49;;;;;;;;;;;;;;;21.16;100.00;99436.94;5092615;28;19912;-69
2022/06/12 08:21:15;;;;;;;;;;;;;;;21.51;100.00;99442.69;5093151;28;19961;-70
2022/06/12 08:23:51;;;;;;;;;;;;;;;21.59;100.00;99435.09;5074690;28;19985;-69
2022/06/12 08:26:18;;;;;;;;;;;;;;;21.49;100.00;99435.03;5074647;28;19965;-70
2022/06/12 08:28:46;;;;;;;;;;;;;;;21.49;100.00;99434.22;5092451;28;19985;-70
2022/06/12 08:31:13;;;;;;;;;;;;;;;21.57;100.00;99435.22;5092687;28;19912;-69
2022/06/12 08:33:41;;;;;;;;;;;;;;;21.61;100.00;99433.19;5092709;28;20322;-69
2022/06/12 08:36:07;;;;;;;;;;;;;;;21.55;100.00;99442.28;5092696;28;20073;-70
2022/06/12 08:38:32;;;;;;;;;;;;;;;21.74;100.00;99431.25;5092534;28;19944;-69
2022/06/12 08:40:57;;;;;;;;;;;;;;;21.76;100.00;99425.94;5092584;28;19912;-70
2022/06/12 08:43:23;;;;;;;;;;;;;;;21.59;100.00;99435.91;5074335;28;19923;-69
2022/06/12 08:45:49;;;;;;;;;;;;;;;22.01;100.00;99446.28;5074100;28;19915;-69
2022/06/12 08:48:17;;;;;;;;;;;;;;;21.83;100.00;99446.03;5092425;28;19919;-74
2022/06/12 08:50:52;;;;;;;;;;;;;;;22.00;100.00;99450.66;5073987;28;20388;-69
2022/06/12 08:53:43;;;;;;;;;;;;;;;21.89;100.00;99442.94;5092237;28;19926;-70
2022/06/12 08:56:15;;;;;;;;;;;;;;;21.70;100.00;99458.34;5089054;28;19912;-69
2022/06/12 08:58:49;;;;;;;;;;;;;;;22.02;100.00;99466.91;5092504;28;20371;-69
2022/06/12 09:01:14;;;;;;;;;;;;;;;22.06;100.00;99464.88;5074183;28;19923;-69
2022/06/12 09:03:46;;;;;;;;;;;;;;;21.85;100.00;99462.28;5073639;28;19912;-69
2022/06/12 09:06:30;;;;;;;;;;;;;;;21.82;100.00;99453.94;5092243;28;19961;-69
2022/06/12 09:08:55;;;;;;;;;;;;;;;21.82;100.00;99449.59;5091639;28;19927;-69
2022/06/12 09:11:30;;;;;;;;;;;;;;;21.82;100.00;99453.94;5092088;28;19920;-69
2022/06/12 09:13:55;;;;;;;;;;;;;;;21.47;100.00;99459.41;5073619;28;20002;-69
2022/06/12 09:16:37;;;;;;;;;;;;;;;21.29;100.00;99459.09;5073741;28;20069;-70
2022/06/12 09:19:16;;;;;;;;;;;;;;;21.15;100.00;99456.81;5092403;28;19912;-69
2022/06/12 09:21:49;;;;;;;;;;;;;;;21.40;100.00;99460.81;5073844;28;19912;-69
2022/06/12 09:24:17;;;;;;;;;;;;;;;21.52;100.00;99454.66;5073621;28;19912;-69
2022/06/12 09:26:51;;;;;;;;;;;;;;;22.20;100.00;99451.59;5091567;28;20300;-69
2022/06/12 09:29:16;;;;;;;;;;;;;;;22.36;100.00;99463.09;5073578;28;20728;-69
2022/06/12 09:31:44;;;;;;;;;;;;;;;22.07;100.00;99461.31;5073350;28;20014;-70
2022/06/12 09:34:19;;;;;;;;;;;;;;;22.06;100.00;99455.34;5091872;28;20045;-69
2022/06/12 09:36:56;;;;;;;;;;;;;;;21.77;100.00;99458.66;5092015;28;19915;-69
2022/06/12 09:39:30;;;;;;;;;;;;;;;21.84;100.00;99457.22;5091875;28;19912;-69
2022/06/12 09:42:08;;;;;;;;;;;;;;;21.85;100.00;99462.28;5091680;28;20290;-69
2022/06/12 09:44:36;;;;;;;;;;;;;;;21.90;100.00;99467.91;5091656;28;20010;-69
2022/06/12 09:47:09;;;;;;;;;;;;;;;21.97;100.00;99457.84;5073337;28;19969;-69
2022/06/12 09:49:41;;;;;;;;;;;;;;;22.38;100.00;99452.63;5091447;28;20050;-69
2022/06/12 09:52:45;;;;;;;;;;;;;;;22.24;100.00;99450.38;5091676;28;20679;-68
2022/06/12 09:55:31;;;;;;;;;;;;;;;22.11;100.00;99455.75;5029023;28;20012;-69
2022/06/12 09:58:06;;;;;;;;;;;;;;;22.20;100.00;99456.75;5012053;28;19917;-69
2022/06/12 10:00:36;;;;;;;;;;;;;;;22.08;100.00;99445.66;5070419;28;19915;-69
2022/06/12 10:03:07;;;;;;;;;;;;;;;21.82;100.00;99454.78;5091315;28;19969;-69
2022/06/12 10:05:49;;;;;;;;;;;;;;;21.92;100.00;99453.06;5091941;28;20278;-69
2022/06/12 10:08:19;;;;;;;;;;;;;;;22.02;100.00;99447.94;5091740;28;19912;-69
2022/06/12 10:10:52;;;;;;;;;;;;;;;21.84;100.00;99441.69;5073876;28;19912;-69
2022/06/12 10:13:24;;;;;;;;;;;;;;;22.39;100.00;99449.91;5077195;28;19912;-70
2022/06/12 10:16:02;;;;;;;;;;;;;;;22.13;100.00;99446.09;5077327;28;19937;-69
2022/06/12 10:18:49;;;;;;;;;;;;;;;22.64;100.00;99447.84;5095390;28;20369;-69
2022/06/12 10:21:20;;;;;;;;;;;;;;;22.29;100.00;99454.22;5095166;28;19969;-69
2022/06/12 10:23:46;;;;;;;;;;;;;;;22.27;100.00;99450.94;5076953;28;20352;-69
2022/06/12 10:26:18;;;;;;;;;;;;;;;22.36;100.00;99467.47;5095170;28;19962;-69
2022/06/12 10:28:44;;;;;;;;;;;;;;;22.36;100.00;99457.91;5095192;28;19939;-70
2022/06/12 10:31:18;;;;;;;;;;;;;;;22.78;100.00;99465.63;5076642;28;19962;-69
2022/06/12 10:33:47;;;;;;;;;;;;;;;22.59;100.00;99468.13;5076799;28;19912;-69
2022/06/12 10:36:18;;;;;;;;;;;;;;;22.91;100.00;99469.59;5094836;28;19977;-69
2022/06/12 10:38:43;;;;;;;;;;;;;;;22.70;100.00;99470.63;5094828;28;19924;-69
2022/06/12 10:41:23;;;;;;;;;;;;;;;22.66;100.00;99475.25;5094891;28;19908;-69
2022/06/12 10:43:50;;;;;;;;;;;;;;;22.96;100.00;99476.97;5095065;28;19912;-69
2022/06/12 10:46:16;;;;;;;;;;;;;;;23.10;100.00;99474.81;5076095;28;19920;-69
2022/06/12 10:48:42;;;;;;;;;;;;;;;23.18;100.00;99481.91;5076621;28;20432;-69
2022/06/12 10:51:13;;;;;;;;;;;;;;;23.53;100.00;99490.03;5076440;28;19919;-69
2022/06/12 10:53:38;;;;;;;;;;;;;;;23.63;100.00;99480.47;5094428;28;19974;-69
2022/06/12 10:56:10;;;;;;;;;;;;;;;23.98;100.00;99472.91;5094311;28;20421;-69
2022/06/12 10:58:35;;;;;;;;;;;;;;;23.82;100.00;99485.66;5076334;28;19951;-69
2022/06/12 11:01:05;;;;;;;;;;;;;;;23.66;100.00;99487.16;5094848;28;19919;-68
2022/06/12 11:03:43;;;;;;;;;;;;;;;23.78;100.00;99486.06;5075919;28;19911;-69
2022/06/12 11:06:37;;;;;;;;;;;;;;;24.27;100.00;99491.03;5094024;28;19961;-69
2022/06/12 11:09:09;;;;;;;;;;;;;;;24.26;100.00;99493.78;5039063;28;20256;-69
2022/06/12 11:11:34;;;;;;;;;;;;;;;23.65;100.00;99494.13;5075801;28;19912;-69
2022/06/12 11:14:03;;;;;;;;;;;;;;;23.97;100.00;99502.44;5094057;28;20656;-69
2022/06/12 11:16:28;;;;;;;;;;;;;;;24.31;100.00;99496.78;5094024;28;19916;-69
2022/06/12 11:19:03;;;;;;;;;;;;;;;24.64;100.00;99511.88;5093775;28;19931;-70
2022/06/12 11:21:38;;;;;;;;;;;;;;;24.97;100.00;99515.69;5093941;28;19981;-70
2022/06/12 11:24:12;;;;;;;;;;;;;;;24.42;100.00;99515.63;5092993;28;19938;-69
2022/06/12 11:26:43;;;;;;;;;;;;;;;25.12;100.00;99514.22;5093912;28;20397;-69
2022/06/12 11:29:27;;;;;;;;;;;;;;;25.29;100.00;99509.06;5075650;28;19914;-69
2022/06/12 11:32:17;;;;;;;;;;;;;;;25.12;100.00;99528.06;5094083;28;19919;-70
2022/06/12 11:35:00;;;;;;;;;;;;;;;25.09;100.00;99527.53;5075699;28;19986;-70
2022/06/12 11:37:41;;;;;;;;;;;;;;;24.09;100.00;99518.72;5094167;28;20014;-69
2022/06/12 11:40:15;;;;;;;;;;;;;;;24.48;100.00;99509.84;5093696;28;19942;-69
2022/06/12 11:43:00;;;;;;;;;;;;;;;24.06;100.00;99516.41;5075376;28;19926;-69
2022/06/12 11:45:46;;;;;;;;;;;;;;;23.76;100.00;99516.53;5061768;28;19927;-69
2022/06/12 11:48:12;;;;;;;;;;;;;;;23.49;100.00;99501.66;5093745;28;19916;-69
2022/06/12 11:50:49;;;;;;;;;;;;;;;23.62;100.00;99503.97;5093354;28;20029;-71
2022/06/12 11:53:30;;;;;;;;;;;;;;;23.63;100.00;99501.22;5075180;28;19912;-70
2022/06/12 11:56:07;;;;;;;;;;;;;;;23.83;100.00;99504.63;5093726;28;19973;-70
2022/06/12 11:58:40;;;;;;;;;;;;;;;24.07;100.00;99502.44;5093342;28;20485;-70
2022/06/12 12:01:17;;;;;;;;;;;;;;;23.92;100.00;99499.44;5093418;28;20356;-70
2022/06/12 12:03:54;;;;;;;;;;;;;;;23.98;100.00;99500.66;5092895;28;19965;-71
2022/06/12 12:06:22;;;;;;;;;;;;;;;23.63;100.00;99498.63;5093209;28;19922;-71
2022/06/12 12:08:51;;;;;;;;;;;;;;;23.44;100.00;99495.22;5074929;28;19992;-70
2022/06/12 12:11:29;;;;;;;;;;;;;;;23.74;100.00;99490.72;5074876;28;19942;-70
2022/06/12 12:13:58;;;;;;;;;;;;;;;23.66;100.00;99500.97;5074638;28;19919;-70
2022/06/12 12:16:49;;;;;;;;;;;;;;;23.81;100.00;99496.19;5074521;28;19912;-70
2022/06/12 12:19:23;;;;;;;;;;;;;;;23.64;100.00;99499.47;5071617;28;20301;-71
2022/06/12 12:21:54;;;;;;;;;;;;;;;23.84;100.00;99501.91;5075038;28;19912;-70
2022/06/12 12:24:25;;;;;;;;;;;;;;;23.71;100.00;99496.16;5092672;28;19916;-73
2022/06/12 12:26:52;;;;;;;;;;;;;;;23.81;100.00;99496.97;5074938;28;19916;-74
2022/06/12 12:29:20;;;;;;;;;;;;;;;23.92;100.00;99494.25;5075631;28;19912;-75
2022/06/12 12:31:46;;;;;;;;;;;;;;;23.91;100.00;99482.22;5075384;28;19916;-75
2022/06/12 12:34:13;;;;;;;;;;;;;;;24.07;100.00;99487.69;5092710;28;19939;-78
2022/06/12 12:42:20;;;;;;;;;;;;;;;24.32;100.00;99486.25;5082941;28;19919;-75
2022/06/12 12:44:46;;;;;;;;;;;;;;;23.95;100.00;99480.97;5074580;28;20723;-75
2022/06/12 12:47:22;;;;;;;;;;;;;;;23.87;100.00;99487.81;5092872;28;19956;-75
2022/06/12 12:49:48;;;;;;;;;;;;;;;23.92;100.00;99481.28;5074476;28;19995;-76
2022/06/12 12:52:21;;;;;;;;;;;;;;;24.02;100.00;99489.03;5090675;28;19939;-77
2022/06/12 12:54:47;;;;;;;;;;;;;;;23.89;100.00;99489.31;5092512;28;19912;-75
2022/06/12 12:57:13;;;;;;;;;;;;;;;23.95;100.00;99467.97;5074859;28;20014;-75
2022/06/12 12:59:46;;;;;;;;;;;;;;;24.20;100.00;99465.78;5091631;28;19959;-73
2022/06/12 13:02:21;;;;;;;;;;;;;;;23.71;100.00;99453.84;5069105;28;19912;-75